sensor_id;sensor_type;location;lat;lon;timestamp;P1;durP1;ratioP1;P2;durP2;ratioP2
14137;SDS011;8199;51.310;9.466;2024-01-10T00:01:16;8.05;;;7.25;;
14137;SDS011;8199;51.310;9.466;2024-01-10T00:03:42;8.98;;;7.25;;
14137;SDS011;8199;51.310;9.466;2024-01-10T00:06:08;8.80;;;7.40;;
14137;SDS011;8199;51.310;9.466;2024-01-10T00:08:35;8.75;;;7.00;;
14137;SDS011;8199;51.310;9.466;2024-01-10T00:11:00;8.20;;;7.22;;
14137;SDS011;8199;51.310;9.466;2024-01-10T00:13:26;7.90;;;6.70;;
14137;SDS011;8199;51.310;9.466;2024-01-10T00:15:52;8.18;;;6.88;;
14137;SDS011;8199;51.310;9.466;2024-01-10T00:18:18;7.00;;;6.30;;
14137;SDS011;8199;51.310;9.466;2024-01-10T00:20:44;7.93;;;6.40;;
14137;SDS011;8199;51.310;9.466;2024-01-10T00:23:09;8.60;;;6.82;;
14137;SDS011;8199;51.310;9.466;2024-01-10T00:25:35;7.47;;;6.65;;
14137;SDS011;8199;51.310;9.466;2024-01-10T00:28:00;7.13;;;6.43;;
14137;SDS011;8199;51.310;9.466;2024-01-10T00:30:26;7.65;;;6.85;;
14137;SDS011;8199;51.310;9.466;2024-01-10T00:32:51;6.80;;;6.10;;
14137;SDS011;8199;51.310;9.466;2024-01-10T00:35:17;7.07;;;6.35;;
14137;SDS011;8199;51.310;9.466;2024-01-10T00:37:42;7.20;;;6.50;;
14137;SDS011;8199;51.310;9.466;2024-01-10T00:40:09;8.05;;;6.40;;
14137;SDS011;8199;51.310;9.466;2024-01-10T00:42:35;6.55;;;5.65;;
14137;SDS011;8199;51.310;9.466;2024-01-10T00:45:00;6.90;;;6.13;;
14137;SDS011;8199;51.310;9.466;2024-01-10T00:47:26;7.50;;;6.43;;
14137;SDS011;8199;51.310;9.466;2024-01-10T00:49:51;6.95;;;6.07;;
14137;SDS011;8199;51.310;9.466;2024-01-10T00:52:17;12.05;;;6.07;;
14137;SDS011;8199;51.310;9.466;2024-01-10T00:54:42;7.60;;;6.20;;
14137;SDS011;8199;51.310;9.466;2024-01-10T00:57:09;6.82;;;5.82;;
14137;SDS011;8199;51.310;9.466;2024-01-10T00:59:34;7.13;;;5.75;;
14137;SDS011;8199;51.310;9.466;2024-01-10T01:02:00;8.13;;;6.40;;
14137;SDS011;8199;51.310;9.466;2024-01-10T01:04:26;6.93;;;5.75;;
14137;SDS011;8199;51.310;9.466;2024-01-10T01:06:51;7.07;;;6.30;;
14137;SDS011;8199;51.310;9.466;2024-01-10T01:09:17;6.53;;;5.82;;
14137;SDS011;8199;51.310;9.466;2024-01-10T01:11:44;6.60;;;5.57;;
14137;SDS011;8199;51.310;9.466;2024-01-10T01:14:09;6.63;;;6.00;;
14137;SDS011;8199;51.310;9.466;2024-01-10T01:16:35;9.10;;;6.22;;
14137;SDS011;8199;51.310;9.466;2024-01-10T01:19:00;6.22;;;5.63;;
14137;SDS011;8199;51.310;9.466;2024-01-10T01:21:26;7.10;;;6.35;;
14137;SDS011;8199;51.310;9.466;2024-01-10T01:23:52;7.03;;;6.05;;
14137;SDS011;8199;51.310;9.466;2024-01-10T01:26:17;6.47;;;5.82;;
14137;SDS011;8199;51.310;9.466;2024-01-10T01:28:43;6.63;;;5.93;;
14137;SDS011;8199;51.310;9.466;2024-01-10T01:31:08;7.10;;;5.88;;
14137;SDS011;8199;51.310;9.466;2024-01-10T01:33:34;6.40;;;5.80;;
14137;SDS011;8199;51.310;9.466;2024-01-10T01:36:00;6.07;;;5.47;;
14137;SDS011;8199;51.310;9.466;2024-01-10T01:38:25;6.15;;;5.55;;
14137;SDS011;8199;51.310;9.466;2024-01-10T01:40:51;6.07;;;5.47;;
14137;SDS011;8199;51.310;9.466;2024-01-10T01:43:20;6.57;;;5.88;;
14137;SDS011;8199;51.310;9.466;2024-01-10T01:45:51;7.07;;;6.07;;
14137;SDS011;8199;51.310;9.466;2024-01-10T01:48:21;5.85;;;5.22;;
14137;SDS011;8199;51.310;9.466;2024-01-10T01:50:49;6.35;;;5.68;;
14137;SDS011;8199;51.310;9.466;2024-01-10T01:53:17;6.72;;;5.88;;
14137;SDS011;8199;51.310;9.466;2024-01-10T01:55:44;6.47;;;5.80;;
14137;SDS011;8199;51.310;9.466;2024-01-10T01:58:10;6.45;;;5.80;;
14137;SDS011;8199;51.310;9.466;2024-01-10T02:00:36;6.68;;;5.78;;
14137;SDS011;8199;51.310;9.466;2024-01-10T02:03:02;7.10;;;6.40;;
14137;SDS011;8199;51.310;9.466;2024-01-10T02:05:29;6.47;;;5.63;;
14137;SDS011;8199;51.310;9.466;2024-01-10T02:07:55;6.60;;;5.70;;
14137;SDS011;8199;51.310;9.466;2024-01-10T02:10:21;6.70;;;6.00;;
14137;SDS011;8199;51.310;9.466;2024-01-10T02:12:47;7.32;;;6.60;;
14137;SDS011;8199;51.310;9.466;2024-01-10T02:15:13;6.28;;;5.38;;
14137;SDS011;8199;51.310;9.466;2024-01-10T02:17:39;6.13;;;5.53;;
14137;SDS011;8199;51.310;9.466;2024-01-10T02:20:11;7.35;;;6.10;;
14137;SDS011;8199;51.310;9.466;2024-01-10T02:22:37;7.18;;;5.85;;
14137;SDS011;8199;51.310;9.466;2024-01-10T02:25:04;6.15;;;5.55;;
14137;SDS011;8199;51.310;9.466;2024-01-10T02:27:34;5.95;;;5.22;;
14137;SDS011;8199;51.310;9.466;2024-01-10T02:30:04;6.40;;;5.68;;
14137;SDS011;8199;51.310;9.466;2024-01-10T02:32:31;7.45;;;6.00;;
14137;SDS011;8199;51.310;9.466;2024-01-10T02:34:57;6.97;;;5.65;;
14137;SDS011;8199;51.310;9.466;2024-01-10T02:37:23;6.15;;;5.55;;
14137;SDS011;8199;51.310;9.466;2024-01-10T02:39:48;5.97;;;5.38;;
14137;SDS011;8199;51.310;9.466;2024-01-10T02:42:14;6.07;;;5.47;;
14137;SDS011;8199;51.310;9.466;2024-01-10T02:44:40;6.50;;;5.82;;
14137;SDS011;8199;51.310;9.466;2024-01-10T02:47:06;6.53;;;5.78;;
14137;SDS011;8199;51.310;9.466;2024-01-10T02:49:32;7.30;;;5.88;;
14137;SDS011;8199;51.310;9.466;2024-01-10T02:51:58;8.68;;;6.20;;
14137;SDS011;8199;51.310;9.466;2024-01-10T02:54:24;6.70;;;5.70;;
14137;SDS011;8199;51.310;9.466;2024-01-10T02:56:49;7.85;;;6.55;;
14137;SDS011;8199;51.310;9.466;2024-01-10T02:59:15;6.85;;;6.18;;
14137;SDS011;8199;51.310;9.466;2024-01-10T03:01:40;8.07;;;5.97;;
14137;SDS011;8199;51.310;9.466;2024-01-10T03:04:06;7.32;;;6.53;;
14137;SDS011;8199;51.310;9.466;2024-01-10T03:06:31;6.60;;;5.78;;
14137;SDS011;8199;51.310;9.466;2024-01-10T03:08:57;6.70;;;5.90;;
14137;SDS011;8199;51.310;9.466;2024-01-10T03:11:22;7.43;;;6.20;;
14137;SDS011;8199;51.310;9.466;2024-01-10T03:13:49;7.25;;;6.50;;
14137;SDS011;8199;51.310;9.466;2024-01-10T03:16:19;7.28;;;6.47;;
14137;SDS011;8199;51.310;9.466;2024-01-10T03:18:45;7.57;;;6.78;;
14137;SDS011;8199;51.310;9.466;2024-01-10T03:21:10;7.25;;;6.55;;
14137;SDS011;8199;51.310;9.466;2024-01-10T03:23:36;7.72;;;6.93;;
14137;SDS011;8199;51.310;9.466;2024-01-10T03:26:02;7.80;;;6.63;;
14137;SDS011;8199;51.310;9.466;2024-01-10T03:28:27;7.40;;;5.72;;
14137;SDS011;8199;51.310;9.466;2024-01-10T03:30:53;7.03;;;6.07;;
14137;SDS011;8199;51.310;9.466;2024-01-10T03:33:18;7.43;;;6.63;;
14137;SDS011;8199;51.310;9.466;2024-01-10T03:35:44;7.18;;;6.43;;
14137;SDS011;8199;51.310;9.466;2024-01-10T03:38:10;7.13;;;6.43;;
14137;SDS011;8199;51.310;9.466;2024-01-10T03:40:35;6.53;;;5.90;;
14137;SDS011;8199;51.310;9.466;2024-01-10T03:43:01;6.80;;;6.07;;
14137;SDS011;8199;51.310;9.466;2024-01-10T03:45:27;6.70;;;6.03;;
14137;SDS011;8199;51.310;9.466;2024-01-10T03:47:53;6.18;;;5.57;;
14137;SDS011;8199;51.310;9.466;2024-01-10T03:50:19;7.47;;;5.80;;
14137;SDS011;8199;51.310;9.466;2024-01-10T03:52:45;7.35;;;6.28;;
14137;SDS011;8199;51.310;9.466;2024-01-10T03:55:14;7.60;;;6.47;;
14137;SDS011;8199;51.310;9.466;2024-01-10T03:57:40;7.20;;;6.50;;
14137;SDS011;8199;51.310;9.466;2024-01-10T04:00:07;8.13;;;6.63;;
14137;SDS011;8199;51.310;9.466;2024-01-10T04:02:33;6.35;;;5.72;;
14137;SDS011;8199;51.310;9.466;2024-01-10T04:05:02;7.43;;;6.63;;
14137;SDS011;8199;51.310;9.466;2024-01-10T04:07:27;7.18;;;6.05;;
14137;SDS011;8199;51.310;9.466;2024-01-10T04:09:53;7.65;;;5.68;;
14137;SDS011;8199;51.310;9.466;2024-01-10T04:12:18;7.45;;;6.65;;
14137;SDS011;8199;51.310;9.466;2024-01-10T04:14:44;6.63;;;5.93;;
14137;SDS011;8199;51.310;9.466;2024-01-10T04:17:09;7.95;;;6.78;;
14137;SDS011;8199;51.310;9.466;2024-01-10T04:19:35;7.05;;;6.35;;
14137;SDS011;8199;51.310;9.466;2024-01-10T04:22:01;7.20;;;6.50;;
14137;SDS011;8199;51.310;9.466;2024-01-10T04:24:26;6.80;;;6.10;;
14137;SDS011;8199;51.310;9.466;2024-01-10T04:26:52;7.22;;;6.53;;
14137;SDS011;8199;51.310;9.466;2024-01-10T04:29:17;6.90;;;6.20;;
14137;SDS011;8199;51.310;9.466;2024-01-10T04:31:43;7.70;;;6.88;;
14137;SDS011;8199;51.310;9.466;2024-01-10T04:34:09;7.43;;;6.68;;
14137;SDS011;8199;51.310;9.466;2024-01-10T04:36:34;7.32;;;6.13;;
14137;SDS011;8199;51.310;9.466;2024-01-10T04:39:00;7.55;;;6.30;;
14137;SDS011;8199;51.310;9.466;2024-01-10T04:41:25;8.00;;;6.93;;
14137;SDS011;8199;51.310;9.466;2024-01-10T04:43:51;7.72;;;6.53;;
14137;SDS011;8199;51.310;9.466;2024-01-10T04:46:17;7.07;;;6.38;;
14137;SDS011;8199;51.310;9.466;2024-01-10T04:48:42;7.15;;;6.45;;
14137;SDS011;8199;51.310;9.466;2024-01-10T04:51:08;7.38;;;6.57;;
14137;SDS011;8199;51.310;9.466;2024-01-10T04:53:33;7.75;;;6.95;;
14137;SDS011;8199;51.310;9.466;2024-01-10T04:55:59;7.82;;;6.80;;
14137;SDS011;8199;51.310;9.466;2024-01-10T04:58:25;8.15;;;6.28;;
14137;SDS011;8199;51.310;9.466;2024-01-10T05:00:50;7.63;;;6.78;;
14137;SDS011;8199;51.310;9.466;2024-01-10T05:03:16;8.70;;;7.18;;
14137;SDS011;8199;51.310;9.466;2024-01-10T05:05:42;8.30;;;7.13;;
14137;SDS011;8199;51.310;9.466;2024-01-10T05:08:07;8.52;;;7.18;;
14137;SDS011;8199;51.310;9.466;2024-01-10T05:10:33;8.13;;;7.05;;
14137;SDS011;8199;51.310;9.466;2024-01-10T05:12:58;7.70;;;6.90;;
14137;SDS011;8199;51.310;9.466;2024-01-10T05:15:24;7.50;;;6.70;;
14137;SDS011;8199;51.310;9.466;2024-01-10T05:17:50;8.65;;;7.38;;
14137;SDS011;8199;51.310;9.466;2024-01-10T05:20:15;8.10;;;7.05;;
14137;SDS011;8199;51.310;9.466;2024-01-10T05:22:42;7.32;;;6.63;;
14137;SDS011;8199;51.310;9.466;2024-01-10T05:25:07;8.40;;;6.97;;
14137;SDS011;8199;51.310;9.466;2024-01-10T05:27:33;8.88;;;7.55;;
14137;SDS011;8199;51.310;9.466;2024-01-10T05:29:59;7.68;;;6.88;;
14137;SDS011;8199;51.310;9.466;2024-01-10T05:32:24;9.88;;;6.93;;
14137;SDS011;8199;51.310;9.466;2024-01-10T05:34:51;8.32;;;7.22;;
14137;SDS011;8199;51.310;9.466;2024-01-10T05:37:17;9.38;;;8.18;;
14137;SDS011;8199;51.310;9.466;2024-01-10T05:39:43;8.20;;;7.07;;
14137;SDS011;8199;51.310;9.466;2024-01-10T05:42:08;9.07;;;7.38;;
14137;SDS011;8199;51.310;9.466;2024-01-10T05:44:34;6.97;;;6.28;;
14137;SDS011;8199;51.310;9.466;2024-01-10T05:46:59;9.13;;;7.78;;
14137;SDS011;8199;51.310;9.466;2024-01-10T05:49:25;9.35;;;7.53;;
14137;SDS011;8199;51.310;9.466;2024-01-10T05:51:51;8.63;;;6.80;;
14137;SDS011;8199;51.310;9.466;2024-01-10T05:54:17;12.27;;;6.82;;
14137;SDS011;8199;51.310;9.466;2024-01-10T05:56:43;10.93;;;7.13;;
14137;SDS011;8199;51.310;9.466;2024-01-10T05:59:09;10.80;;;8.00;;
14137;SDS011;8199;51.310;9.466;2024-01-10T06:01:36;11.63;;;7.03;;
14137;SDS011;8199;51.310;9.466;2024-01-10T06:04:04;9.13;;;7.28;;
14137;SDS011;8199;51.310;9.466;2024-01-10T06:06:31;9.55;;;7.53;;
14137;SDS011;8199;51.310;9.466;2024-01-10T06:08:57;12.38;;;7.88;;
14137;SDS011;8199;51.310;9.466;2024-01-10T06:11:23;10.80;;;7.60;;
14137;SDS011;8199;51.310;9.466;2024-01-10T06:13:48;8.02;;;7.22;;
14137;SDS011;8199;51.310;9.466;2024-01-10T06:16:14;8.82;;;7.45;;
14137;SDS011;8199;51.310;9.466;2024-01-10T06:18:39;8.45;;;7.32;;
14137;SDS011;8199;51.310;9.466;2024-01-10T06:21:05;9.18;;;8.18;;
14137;SDS011;8199;51.310;9.466;2024-01-10T06:23:30;10.95;;;9.23;;
14137;SDS011;8199;51.310;9.466;2024-01-10T06:25:56;15.10;;;10.63;;
14137;SDS011;8199;51.310;9.466;2024-01-10T06:28:21;13.88;;;11.10;;
14137;SDS011;8199;51.310;9.466;2024-01-10T06:30:48;11.73;;;9.82;;
14137;SDS011;8199;51.310;9.466;2024-01-10T06:33:14;11.10;;;9.90;;
14137;SDS011;8199;51.310;9.466;2024-01-10T06:35:40;11.73;;;9.55;;
14137;SDS011;8199;51.310;9.466;2024-01-10T06:38:08;11.88;;;9.35;;
14137;SDS011;8199;51.310;9.466;2024-01-10T06:40:34;12.07;;;9.73;;
14137;SDS011;8199;51.310;9.466;2024-01-10T06:43:00;12.90;;;9.55;;
14137;SDS011;8199;51.310;9.466;2024-01-10T06:45:26;12.52;;;10.73;;
14137;SDS011;8199;51.310;9.466;2024-01-10T06:47:51;14.57;;;9.73;;
14137;SDS011;8199;51.310;9.466;2024-01-10T06:50:17;13.38;;;9.05;;
14137;SDS011;8199;51.310;9.466;2024-01-10T06:52:44;11.13;;;8.77;;
14137;SDS011;8199;51.310;9.466;2024-01-10T06:55:10;11.07;;;9.50;;
14137;SDS011;8199;51.310;9.466;2024-01-10T06:57:36;10.27;;;8.43;;
14137;SDS011;8199;51.310;9.466;2024-01-10T07:00:01;11.80;;;8.45;;
14137;SDS011;8199;51.310;9.466;2024-01-10T07:02:31;11.80;;;8.57;;
14137;SDS011;8199;51.310;9.466;2024-01-10T07:04:57;10.82;;;8.10;;
14137;SDS011;8199;51.310;9.466;2024-01-10T07:07:23;11.23;;;8.40;;
14137;SDS011;8199;51.310;9.466;2024-01-10T07:09:48;9.45;;;8.45;;
14137;SDS011;8199;51.310;9.466;2024-01-10T07:12:14;13.95;;;11.25;;
14137;SDS011;8199;51.310;9.466;2024-01-10T07:14:39;13.48;;;10.57;;
14137;SDS011;8199;51.310;9.466;2024-01-10T07:17:05;11.45;;;9.15;;
14137;SDS011;8199;51.310;9.466;2024-01-10T07:19:31;11.35;;;9.98;;
14137;SDS011;8199;51.310;9.466;2024-01-10T07:21:57;11.35;;;9.25;;
14137;SDS011;8199;51.310;9.466;2024-01-10T07:24:23;12.50;;;9.45;;
14137;SDS011;8199;51.310;9.466;2024-01-10T07:26:48;13.18;;;10.05;;
14137;SDS011;8199;51.310;9.466;2024-01-10T07:29:14;10.85;;;9.30;;
14137;SDS011;8199;51.310;9.466;2024-01-10T07:31:40;11.38;;;9.75;;
14137;SDS011;8199;51.310;9.466;2024-01-10T07:34:05;11.75;;;9.70;;
14137;SDS011;8199;51.310;9.466;2024-01-10T07:36:32;12.82;;;9.10;;
14137;SDS011;8199;51.310;9.466;2024-01-10T07:39:01;10.18;;;8.65;;
14137;SDS011;8199;51.310;9.466;2024-01-10T07:41:26;12.95;;;9.02;;
14137;SDS011;8199;51.310;9.466;2024-01-10T07:43:52;10.77;;;8.63;;
14137;SDS011;8199;51.310;9.466;2024-01-10T07:46:20;10.45;;;8.50;;
14137;SDS011;8199;51.310;9.466;2024-01-10T07:48:47;11.55;;;8.73;;
14137;SDS011;8199;51.310;9.466;2024-01-10T07:51:13;11.50;;;8.30;;
14137;SDS011;8199;51.310;9.466;2024-01-10T07:53:38;9.85;;;8.00;;
14137;SDS011;8199;51.310;9.466;2024-01-10T07:56:04;10.13;;;8.98;;
14137;SDS011;8199;51.310;9.466;2024-01-10T07:58:29;9.75;;;7.75;;
14137;SDS011;8199;51.310;9.466;2024-01-10T08:00:55;10.23;;;8.07;;
14137;SDS011;8199;51.310;9.466;2024-01-10T08:03:21;10.02;;;8.25;;
14137;SDS011;8199;51.310;9.466;2024-01-10T08:05:46;9.05;;;8.10;;
14137;SDS011;8199;51.310;9.466;2024-01-10T08:08:12;9.15;;;8.13;;
14137;SDS011;8199;51.310;9.466;2024-01-10T08:10:38;9.68;;;8.05;;
14137;SDS011;8199;51.310;9.466;2024-01-10T08:13:05;9.43;;;8.30;;
14137;SDS011;8199;51.310;9.466;2024-01-10T08:15:30;9.73;;;8.35;;
14137;SDS011;8199;51.310;9.466;2024-01-10T08:17:59;11.55;;;8.65;;
14137;SDS011;8199;51.310;9.466;2024-01-10T08:20:25;11.13;;;9.57;;
14137;SDS011;8199;51.310;9.466;2024-01-10T08:22:51;9.30;;;7.85;;
14137;SDS011;8199;51.310;9.466;2024-01-10T08:25:18;10.35;;;8.98;;
14137;SDS011;8199;51.310;9.466;2024-01-10T08:27:44;10.23;;;8.82;;
14137;SDS011;8199;51.310;9.466;2024-01-10T08:30:10;9.95;;;8.80;;
14137;SDS011;8199;51.310;9.466;2024-01-10T08:32:36;10.35;;;8.40;;
14137;SDS011;8199;51.310;9.466;2024-01-10T08:35:02;10.07;;;7.95;;
14137;SDS011;8199;51.310;9.466;2024-01-10T08:37:29;10.32;;;8.23;;
14137;SDS011;8199;51.310;9.466;2024-01-10T08:39:55;10.15;;;8.85;;
14137;SDS011;8199;51.310;9.466;2024-01-10T08:42:21;9.93;;;8.43;;
14137;SDS011;8199;51.310;9.466;2024-01-10T08:44:47;9.40;;;8.40;;
14137;SDS011;8199;51.310;9.466;2024-01-10T08:47:12;10.43;;;8.95;;
14137;SDS011;8199;51.310;9.466;2024-01-10T08:49:38;11.50;;;8.70;;
14137;SDS011;8199;51.310;9.466;2024-01-10T08:52:04;11.05;;;9.27;;
14137;SDS011;8199;51.310;9.466;2024-01-10T08:54:30;10.18;;;8.32;;
14137;SDS011;8199;51.310;9.466;2024-01-10T08:56:55;9.77;;;8.63;;
14137;SDS011;8199;51.310;9.466;2024-01-10T08:59:21;9.93;;;8.25;;
14137;SDS011;8199;51.310;9.466;2024-01-10T09:01:47;9.15;;;8.13;;
14137;SDS011;8199;51.310;9.466;2024-01-10T09:04:12;9.40;;;8.38;;
14137;SDS011;8199;51.310;9.466;2024-01-10T09:06:38;9.98;;;8.50;;
14137;SDS011;8199;51.310;9.466;2024-01-10T09:09:04;9.38;;;8.05;;
14137;SDS011;8199;51.310;9.466;2024-01-10T09:11:29;9.80;;;8.40;;
14137;SDS011;8199;51.310;9.466;2024-01-10T09:13:55;9.10;;;8.18;;
14137;SDS011;8199;51.310;9.466;2024-01-10T09:16:21;10.18;;;9.07;;
14137;SDS011;8199;51.310;9.466;2024-01-10T09:18:47;9.93;;;8.73;;
14137;SDS011;8199;51.310;9.466;2024-01-10T09:21:14;11.05;;;9.43;;
14137;SDS011;8199;51.310;9.466;2024-01-10T09:23:40;9.93;;;8.35;;
14137;SDS011;8199;51.310;9.466;2024-01-10T09:26:06;9.65;;;8.23;;
14137;SDS011;8199;51.310;9.466;2024-01-10T09:28:33;9.15;;;8.18;;
14137;SDS011;8199;51.310;9.466;2024-01-10T09:30:59;9.98;;;8.35;;
14137;SDS011;8199;51.310;9.466;2024-01-10T09:33:24;9.75;;;8.75;;
14137;SDS011;8199;51.310;9.466;2024-01-10T09:35:50;10.90;;;8.50;;
14137;SDS011;8199;51.310;9.466;2024-01-10T09:38:16;10.27;;;8.82;;
14137;SDS011;8199;51.310;9.466;2024-01-10T09:40:42;9.60;;;8.60;;
14137;SDS011;8199;51.310;9.466;2024-01-10T09:43:08;10.48;;;9.13;;
14137;SDS011;8199;51.310;9.466;2024-01-10T09:45:37;11.65;;;8.60;;
14137;SDS011;8199;51.310;9.466;2024-01-10T09:48:11;9.93;;;8.23;;
14137;SDS011;8199;51.310;9.466;2024-01-10T09:50:39;8.55;;;7.60;;
14137;SDS011;8199;51.310;9.466;2024-01-10T09:53:05;9.30;;;7.93;;
14137;SDS011;8199;51.310;9.466;2024-01-10T09:55:34;9.43;;;8.00;;
14137;SDS011;8199;51.310;9.466;2024-01-10T09:58:04;8.40;;;7.40;;
14137;SDS011;8199;51.310;9.466;2024-01-10T10:00:31;9.20;;;8.10;;
14137;SDS011;8199;51.310;9.466;2024-01-10T10:02:59;9.23;;;7.43;;
14137;SDS011;8199;51.310;9.466;2024-01-10T10:05:26;8.63;;;7.70;;
14137;SDS011;8199;51.310;9.466;2024-01-10T10:07:52;9.00;;;8.05;;
14137;SDS011;8199;51.310;9.466;2024-01-10T10:10:18;9.43;;;8.43;;
14137;SDS011;8199;51.310;9.466;2024-01-10T10:12:45;9.43;;;7.75;;
14137;SDS011;8199;51.310;9.466;2024-01-10T10:15:12;9.77;;;8.38;;
14137;SDS011;8199;51.310;9.466;2024-01-10T10:17:40;9.60;;;8.20;;
14137;SDS011;8199;51.310;9.466;2024-01-10T10:20:11;9.32;;;8.20;;
14137;SDS011;8199;51.310;9.466;2024-01-10T10:25:26;9.55;;;8.55;;
14137;SDS011;8199;51.310;9.466;2024-01-10T10:28:03;8.85;;;7.93;;
14137;SDS011;8199;51.310;9.466;2024-01-10T10:30:30;8.45;;;7.63;;
14137;SDS011;8199;51.310;9.466;2024-01-10T10:32:57;9.13;;;8.15;;
14137;SDS011;8199;51.310;9.466;2024-01-10T10:35:23;8.15;;;7.25;;
14137;SDS011;8199;51.310;9.466;2024-01-10T10:37:50;8.98;;;8.05;;
14137;SDS011;8199;51.310;9.466;2024-01-10T10:40:19;8.45;;;7.45;;
14137;SDS011;8199;51.310;9.466;2024-01-10T10:42:56;8.25;;;7.28;;
14137;SDS011;8199;51.310;9.466;2024-01-10T10:45:22;9.00;;;7.75;;
14137;SDS011;8199;51.310;9.466;2024-01-10T10:47:53;8.63;;;7.07;;
14137;SDS011;8199;51.310;9.466;2024-01-10T10:50:24;8.50;;;7.20;;
14137;SDS011;8199;51.310;9.466;2024-01-10T10:52:53;8.60;;;7.70;;
14137;SDS011;8199;51.310;9.466;2024-01-10T10:55:21;8.40;;;7.50;;
14137;SDS011;8199;51.310;9.466;2024-01-10T10:57:48;8.25;;;7.45;;
14137;SDS011;8199;51.310;9.466;2024-01-10T11:00:20;9.35;;;7.90;;
14137;SDS011;8199;51.310;9.466;2024-01-10T11:02:51;7.63;;;6.82;;
14137;SDS011;8199;51.310;9.466;2024-01-10T11:05:18;9.05;;;7.75;;
14137;SDS011;8199;51.310;9.466;2024-01-10T11:07:45;9.40;;;8.02;;
14137;SDS011;8199;51.310;9.466;2024-01-10T11:10:21;8.40;;;7.22;;
14137;SDS011;8199;51.310;9.466;2024-01-10T11:13:20;8.77;;;7.85;;
14137;SDS011;8199;51.310;9.466;2024-01-10T11:21:24;8.88;;;7.97;;
14137;SDS011;8199;51.310;9.466;2024-01-10T11:24:08;7.65;;;6.95;;
14137;SDS011;8199;51.310;9.466;2024-01-10T11:26:36;8.98;;;7.95;;
14137;SDS011;8199;51.310;9.466;2024-01-10T11:29:03;8.00;;;7.05;;
14137;SDS011;8199;51.310;9.466;2024-01-10T11:31:30;8.95;;;7.60;;
14137;SDS011;8199;51.310;9.466;2024-01-10T11:33:57;8.25;;;7.28;;
14137;SDS011;8199;51.310;9.466;2024-01-10T11:36:25;7.90;;;7.03;;
14137;SDS011;8199;51.310;9.466;2024-01-10T11:41:37;8.57;;;7.25;;
14137;SDS011;8199;51.310;9.466;2024-01-10T11:46:40;8.13;;;7.30;;
14137;SDS011;8199;51.310;9.466;2024-01-10T11:49:10;8.18;;;7.32;;
14137;SDS011;8199;51.310;9.466;2024-01-10T11:51:41;8.50;;;7.50;;
14137;SDS011;8199;51.310;9.466;2024-01-10T11:54:07;8.98;;;7.65;;
14137;SDS011;8199;51.310;9.466;2024-01-10T11:56:41;8.50;;;7.35;;
14137;SDS011;8199;51.310;9.466;2024-01-10T11:59:11;8.35;;;7.40;;
14137;SDS011;8199;51.310;9.466;2024-01-10T12:01:41;7.85;;;7.05;;
14137;SDS011;8199;51.310;9.466;2024-01-10T12:04:07;7.93;;;7.13;;
14137;SDS011;8199;51.310;9.466;2024-01-10T12:06:34;8.02;;;7.10;;
14137;SDS011;8199;51.310;9.466;2024-01-10T12:09:01;8.77;;;7.10;;
14137;SDS011;8199;51.310;9.466;2024-01-10T12:11:33;7.88;;;6.82;;
14137;SDS011;8199;51.310;9.466;2024-01-10T12:14:04;7.38;;;6.60;;
14137;SDS011;8199;51.310;9.466;2024-01-10T12:16:29;7.75;;;6.88;;
14137;SDS011;8199;51.310;9.466;2024-01-10T12:18:57;7.50;;;6.68;;
14137;SDS011;8199;51.310;9.466;2024-01-10T12:21:22;8.18;;;7.20;;
14137;SDS011;8199;51.310;9.466;2024-01-10T12:23:48;8.15;;;7.00;;
14137;SDS011;8199;51.310;9.466;2024-01-10T12:26:16;7.63;;;6.82;;
14137;SDS011;8199;51.310;9.466;2024-01-10T12:28:47;7.97;;;6.88;;
14137;SDS011;8199;51.310;9.466;2024-01-10T12:31:22;7.43;;;6.70;;
14137;SDS011;8199;51.310;9.466;2024-01-10T12:33:51;8.02;;;7.22;;
14137;SDS011;8199;51.310;9.466;2024-01-10T12:36:17;7.90;;;7.00;;
14137;SDS011;8199;51.310;9.466;2024-01-10T12:38:44;8.23;;;6.80;;
14137;SDS011;8199;51.310;9.466;2024-01-10T12:41:10;8.07;;;6.72;;
14137;SDS011;8199;51.310;9.466;2024-01-10T12:43:37;8.07;;;6.80;;
14137;SDS011;8199;51.310;9.466;2024-01-10T12:48:32;7.63;;;6.75;;
14137;SDS011;8199;51.310;9.466;2024-01-10T12:51:01;6.88;;;6.18;;
14137;SDS011;8199;51.310;9.466;2024-01-10T12:53:30;7.38;;;6.32;;
14137;SDS011;8199;51.310;9.466;2024-01-10T12:55:58;7.30;;;6.55;;
14137;SDS011;8199;51.310;9.466;2024-01-10T12:58:24;7.40;;;6.63;;
14137;SDS011;8199;51.310;9.466;2024-01-10T13:00:49;7.65;;;6.82;;
14137;SDS011;8199;51.310;9.466;2024-01-10T13:03:15;7.22;;;6.38;;
14137;SDS011;8199;51.310;9.466;2024-01-10T13:05:41;7.50;;;6.68;;
14137;SDS011;8199;51.310;9.466;2024-01-10T13:08:06;7.13;;;6.43;;
14137;SDS011;8199;51.310;9.466;2024-01-10T13:10:32;7.10;;;6.32;;
14137;SDS011;8199;51.310;9.466;2024-01-10T13:12:58;7.28;;;6.50;;
14137;SDS011;8199;51.310;9.466;2024-01-10T13:15:23;6.93;;;6.22;;
14137;SDS011;8199;51.310;9.466;2024-01-10T13:17:49;8.20;;;6.68;;
14137;SDS011;8199;51.310;9.466;2024-01-10T13:20:14;7.95;;;7.03;;
14137;SDS011;8199;51.310;9.466;2024-01-10T13:22:40;8.50;;;7.00;;
14137;SDS011;8199;51.310;9.466;2024-01-10T13:25:06;7.72;;;6.93;;
14137;SDS011;8199;51.310;9.466;2024-01-10T13:27:31;7.53;;;6.22;;
14137;SDS011;8199;51.310;9.466;2024-01-10T13:29:57;7.63;;;6.57;;
14137;SDS011;8199;51.310;9.466;2024-01-10T13:32:22;7.93;;;7.07;;
14137;SDS011;8199;51.310;9.466;2024-01-10T13:34:48;7.82;;;7.00;;
14137;SDS011;8199;51.310;9.466;2024-01-10T13:37:13;7.45;;;6.65;;
14137;SDS011;8199;51.310;9.466;2024-01-10T13:39:42;6.82;;;6.13;;
14137;SDS011;8199;51.310;9.466;2024-01-10T13:42:08;7.85;;;6.53;;
14137;SDS011;8199;51.310;9.466;2024-01-10T13:44:35;6.93;;;6.22;;
14137;SDS011;8199;51.310;9.466;2024-01-10T13:47:01;7.25;;;6.55;;
14137;SDS011;8199;51.310;9.466;2024-01-10T13:49:28;7.10;;;6.40;;
14137;SDS011;8199;51.310;9.466;2024-01-10T13:51:54;7.10;;;6.40;;
14137;SDS011;8199;51.310;9.466;2024-01-10T13:54:19;7.60;;;5.88;;
14137;SDS011;8199;51.310;9.466;2024-01-10T13:56:46;7.57;;;6.35;;
14137;SDS011;8199;51.310;9.466;2024-01-10T13:59:12;7.05;;;6.35;;
14137;SDS011;8199;51.310;9.466;2024-01-10T14:01:37;6.50;;;5.72;;
14137;SDS011;8199;51.310;9.466;2024-01-10T14:04:03;6.60;;;6.00;;
14137;SDS011;8199;51.310;9.466;2024-01-10T14:06:29;7.35;;;6.55;;
14137;SDS011;8199;51.310;9.466;2024-01-10T14:08:55;7.43;;;5.90;;
14137;SDS011;8199;51.310;9.466;2024-01-10T14:11:21;7.10;;;6.20;;
14137;SDS011;8199;51.310;9.466;2024-01-10T14:13:47;6.72;;;5.97;;
14137;SDS011;8199;51.310;9.466;2024-01-10T14:16:13;6.60;;;5.80;;
14137;SDS011;8199;51.310;9.466;2024-01-10T14:18:39;7.10;;;6.40;;
14137;SDS011;8199;51.310;9.466;2024-01-10T14:21:04;6.10;;;5.50;;
14137;SDS011;8199;51.310;9.466;2024-01-10T14:23:30;6.07;;;5.47;;
14137;SDS011;8199;51.310;9.466;2024-01-10T14:25:55;5.78;;;5.28;;
14137;SDS011;8199;51.310;9.466;2024-01-10T14:28:21;6.70;;;6.00;;
14137;SDS011;8199;51.310;9.466;2024-01-10T14:30:47;6.55;;;5.53;;
14137;SDS011;8199;51.310;9.466;2024-01-10T14:33:13;6.50;;;5.90;;
14137;SDS011;8199;51.310;9.466;2024-01-10T14:35:39;6.65;;;5.95;;
14137;SDS011;8199;51.310;9.466;2024-01-10T14:38:05;6.75;;;5.90;;
14137;SDS011;8199;51.310;9.466;2024-01-10T14:40:31;6.57;;;5.97;;
14137;SDS011;8199;51.310;9.466;2024-01-10T14:42:56;6.22;;;5.53;;
14137;SDS011;8199;51.310;9.466;2024-01-10T14:45:22;6.88;;;6.00;;
14137;SDS011;8199;51.310;9.466;2024-01-10T14:47:47;6.05;;;5.25;;
14137;SDS011;8199;51.310;9.466;2024-01-10T14:50:14;6.57;;;5.65;;
14137;SDS011;8199;51.310;9.466;2024-01-10T14:52:40;7.10;;;6.15;;
14137;SDS011;8199;51.310;9.466;2024-01-10T14:55:06;5.95;;;5.35;;
14137;SDS011;8199;51.310;9.466;2024-01-10T14:57:32;6.72;;;5.70;;
14137;SDS011;8199;51.310;9.466;2024-01-10T14:59:58;7.63;;;5.53;;
14137;SDS011;8199;51.310;9.466;2024-01-10T15:02:24;7.72;;;5.28;;
14137;SDS011;8199;51.310;9.466;2024-01-10T15:04:50;8.30;;;5.90;;
14137;SDS011;8199;51.310;9.466;2024-01-10T15:07:16;6.35;;;4.90;;
14137;SDS011;8199;51.310;9.466;2024-01-10T15:09:42;6.22;;;5.60;;